createdAt,value
2023-01-01T00:01:25.111Z,68836.03
2023-01-01T00:03:54.596Z,68838.69
2023-01-01T00:06:22.767Z,68841.72
2023-01-01T00:09:08.651Z,68844.94
2023-01-01T00:11:35.923Z,68842.28
2023-01-01T00:14:08.362Z,68836.03
2023-01-01T00:16:42.730Z,68832.78
2023-01-01T00:19:12.870Z,68831.69
2023-01-01T00:21:40.195Z,68801.25
2023-01-01T00:24:08.089Z,68836.22
2023-01-01T00:26:35.757Z,68841.72
2023-01-01T00:29:05.339Z,68839.25
2023-01-01T00:31:39.012Z,68840.94
2023-01-01T00:34:06.415Z,68855.94
2023-01-01T00:36:33.704Z,68848.53
2023-01-01T00:39:02.764Z,68845.72
2023-01-01T00:41:30.042Z,68842.09
2023-01-01T00:43:57.104Z,68839.63
2023-01-01T00:46:32.402Z,68834.72
2023-01-01T00:48:59.740Z,68837.72
2023-01-01T00:51:30.425Z,68840.22
2023-01-01T00:54:02.289Z,68833.56
2023-01-01T00:56:29.635Z,68817.25
2023-01-01T00:59:00.606Z,68823.72
2023-01-01T01:01:29.190Z,68836.41
2023-01-01T01:03:56.353Z,68832.06
2023-01-01T01:06:24.449Z,68826.75
2023-01-01T01:08:51.642Z,68819.72
2023-01-01T01:11:24.636Z,68831.69
2023-01-01T01:13:56.927Z,68818.22
2023-01-01T01:16:41.332Z,68804.19
2023-01-01T01:19:13.857Z,68804.75
2023-01-01T01:21:41.649Z,68806.28
2023-01-01T01:24:09.738Z,68809.47
2023-01-01T01:26:37.811Z,68816.50
2023-01-01T01:29:14.105Z,68808.75
2023-01-01T01:31:42.330Z,68817.06
2023-01-01T01:34:16.023Z,68807.97
2023-01-01T01:36:43.537Z,68796.41
2023-01-01T01:39:12.684Z,68793.00
2023-01-01T01:41:39.793Z,68785.41
2023-01-01T01:44:45.416Z,68766.25
2023-01-01T01:47:43.250Z,68771.56
2023-01-01T01:50:19.795Z,68767.97
2023-01-01T01:53:08.735Z,68754.34
2023-01-01T01:55:43.169Z,68728.38
2023-01-01T01:58:13.561Z,68746.19
2023-01-01T02:00:40.702Z,68736.50
2023-01-01T02:03:12.520Z,68726.84
2023-01-01T02:05:41.357Z,68716.59
2023-01-01T02:08:10.064Z,68709.81
2023-01-01T02:10:37.223Z,68712.25
2023-01-01T02:13:04.397Z,68709.03
2023-01-01T02:15:38.909Z,68709.22
2023-01-01T02:18:14.241Z,68705.81
2023-01-01T02:21:06.076Z,68696.72
2023-01-01T02:23:48.192Z,68692.38
2023-01-01T02:26:25.751Z,68694.44
2023-01-01T02:29:07.843Z,68679.66
2023-01-01T02:31:40.300Z,68675.69
2023-01-01T02:34:12.020Z,68688.56
2023-01-01T02:36:45.819Z,68703.00
2023-01-01T02:39:15.451Z,68704.69
2023-01-01T02:41:47.127Z,68691.44
2023-01-01T02:44:15.194Z,68687.63
2023-01-01T02:46:42.659Z,68678.53
2023-01-01T02:49:11.232Z,68700.91
2023-01-01T02:51:44.437Z,68692.56
2023-01-01T02:54:17.182Z,68689.53
2023-01-01T02:56:50.883Z,68693.88
2023-01-01T02:59:36.348Z,68697.13
2023-01-01T03:02:19.515Z,68691.78
2023-01-01T03:04:53.914Z,68695.78
2023-01-01T03:07:35.999Z,68688.41
2023-01-01T03:10:15.849Z,68673.22
2023-01-01T03:13:00.531Z,68674.19
2023-01-01T03:15:36.665Z,68679.31
2023-01-01T03:18:15.583Z,68675.69
2023-01-01T03:20:47.747Z,68656.91
2023-01-01T03:23:21.267Z,68665.88
2023-01-01T03:25:54.458Z,68657.50
2023-01-01T03:28:27.432Z,68634.22
2023-01-01T03:30:56.494Z,68635.53
2023-01-01T03:33:30.270Z,68650.50
2023-01-01T03:36:02.101Z,68635.91
2023-01-01T03:38:39.089Z,68625.50
2023-01-01T03:41:17.204Z,68631.75
2023-01-01T03:44:02.951Z,68630.22
2023-01-01T03:46:34.775Z,68599.56
2023-01-01T03:49:05.427Z,68587.63
2023-01-01T03:51:44.304Z,68598.81
2023-01-01T03:54:30.907Z,68618.28
2023-01-01T03:57:16.496Z,68616.59
2023-01-01T03:59:53.663Z,68635.91
2023-01-01T04:02:25.532Z,68626.63
2023-01-01T04:04:53.317Z,68614.13
2023-01-01T04:07:21.283Z,68607.91
2023-01-01T04:09:50.570Z,68596.72
2023-01-01T04:12:19.054Z,68590.28
2023-01-01T04:14:46.412Z,68595.78
2023-01-01T04:17:18.747Z,68587.81
2023-01-01T04:19:51.516Z,68600.91
2023-01-01T04:22:31.301Z,68609.59
2023-01-01T04:24:58.499Z,68591.97
2023-01-01T04:27:25.619Z,68607.31
2023-01-01T04:29:52.688Z,68586.09
2023-01-01T04:32:19.837Z,68595.38
2023-01-01T04:34:46.903Z,68582.53
2023-01-01T04:37:14.347Z,68578.56
2023-01-01T04:39:42.077Z,68585.19
2023-01-01T04:42:09.502Z,68584.97
2023-01-01T04:44:36.595Z,68590.09
2023-01-01T04:47:03.976Z,68589.34
2023-01-01T04:49:32.524Z,68582.91
2023-01-01T04:51:59.618Z,68591.41
2023-01-01T04:54:29.138Z,68595.94
2023-01-01T04:56:59.609Z,68597.09
2023-01-01T04:59:26.960Z,68601.06
2023-01-01T05:01:54.417Z,68585.34
2023-01-01T05:04:21.636Z,68588.00
2023-01-01T05:06:48.752Z,68578.56
2023-01-01T05:09:24.929Z,68585.94
2023-01-01T05:11:54.234Z,68584.97
2023-01-01T05:14:27.079Z,68577.78
2023-01-01T05:16:54.194Z,68570.59
2023-01-01T05:19:21.447Z,68582.31
2023-01-01T05:21:48.565Z,68576.09
2023-01-01T05:24:15.927Z,68582.31
2023-01-01T05:26:48.233Z,68588.19
2023-01-01T05:29:17.509Z,68594.28
2023-01-01T05:31:48.315Z,68600.31
2023-01-01T05:34:15.478Z,68599.38
2023-01-01T05:36:42.646Z,68594.84
2023-01-01T05:39:12.477Z,68598.25
2023-01-01T05:41:40.700Z,68602.78
2023-01-01T05:44:09.751Z,68604.88
2023-01-01T05:46:37.553Z,68607.69
2023-01-01T05:49:04.932Z,68587.81
2023-01-01T05:54:01.019Z,68590.47
2023-01-01T05:56:28.312Z,68608.25
2023-01-01T05:58:56.469Z,68611.13
2023-01-01T06:01:26.605Z,68610.72
2023-01-01T06:03:55.057Z,68611.50
2023-01-01T06:06:28.612Z,68613.56
2023-01-01T06:09:01.895Z,68608.84
2023-01-01T06:11:30.064Z,68608.47
2023-01-01T06:13:59.086Z,68613.56
2023-01-01T06:16:27.843Z,68619.44
2023-01-01T06:18:55.023Z,68624.75
2023-01-01T06:21:24.429Z,68634.97
2023-01-01T06:23:51.881Z,68620.75
2023-01-01T06:26:27.977Z,68623.25
2023-01-01T06:28:55.783Z,68617.56
2023-01-01T06:31:23.445Z,68623.25
2023-01-01T06:33:51.122Z,68627.78
2023-01-01T06:36:21.158Z,68629.88
2023-01-01T06:38:50.677Z,68626.25
2023-01-01T06:41:20.436Z,68630.59
2023-01-01T06:43:47.849Z,68629.09
2023-01-01T06:46:24.301Z,68645.75
2023-01-01T06:48:55.395Z,68633.25
2023-01-01T06:51:24.959Z,68641.00
2023-01-01T06:53:53.028Z,68630.97
2023-01-01T06:56:20.953Z,68629.28
2023-01-01T06:58:48.026Z,68623.97
2023-01-01T07:01:19.111Z,68640.66
2023-01-01T07:04:00.766Z,68634.22
2023-01-01T07:06:30.391Z,68628.91
2023-01-01T07:08:57.845Z,68623.41
2023-01-01T07:11:25.488Z,68635.91
2023-01-01T07:13:55.811Z,68630.22
2023-01-01T07:16:26.395Z,68631.75
2023-01-01T07:18:53.754Z,68630.03
2023-01-01T07:21:29.624Z,68626.81
2023-01-01T07:23:58.191Z,68636.88
2023-01-01T07:26:26.261Z,68630.78
2023-01-01T07:28:53.912Z,68646.69
2023-01-01T07:31:21.368Z,68643.66
2023-01-01T07:33:48.521Z,68642.16
2023-01-01T07:36:16.749Z,68649.19
2023-01-01T07:38:43.917Z,68653.53
2023-01-01T07:41:13.120Z,68657.88
2023-01-01T07:43:40.220Z,68665.66
2023-01-01T07:46:07.340Z,68662.63
2023-01-01T07:48:39.787Z,68659.22
2023-01-01T07:51:07.388Z,68660.75
2023-01-01T07:53:34.504Z,68646.69
2023-01-01T07:56:01.837Z,68645.94
2023-01-01T07:58:29.040Z,68646.13
2023-01-01T08:00:56.143Z,68658.44
2023-01-01T08:03:23.306Z,68664.72
2023-01-01T08:05:50.492Z,68685.75
2023-01-01T08:08:17.585Z,68689.53
2023-01-01T08:10:44.688Z,68690.09
2023-01-01T08:13:11.800Z,68696.53
2023-01-01T08:15:38.911Z,68697.28
2023-01-01T08:18:06.183Z,68710.00
2023-01-01T08:20:33.937Z,68723.63
2023-01-01T08:23:06.940Z,68717.94
2023-01-01T08:25:35.334Z,68719.81
2023-01-01T08:28:02.401Z,68725.13
2023-01-01T08:30:29.460Z,68727.78
2023-01-01T08:32:56.555Z,68734.41
2023-01-01T08:35:23.704Z,68738.75
2023-01-01T08:37:51.007Z,68764.16
2023-01-01T08:40:18.135Z,68780.84
2023-01-01T08:42:45.249Z,68778.19
2023-01-01T08:45:12.336Z,68784.25
2023-01-01T08:47:39.491Z,68772.31
2023-01-01T08:50:07.176Z,68780.28
2023-01-01T08:52:34.267Z,68782.00
2023-01-01T08:55:01.386Z,68778.19
2023-01-01T08:57:36.511Z,68778.56
2023-01-01T09:00:04.552Z,68771.94
2023-01-01T09:02:33.697Z,68778.97
2023-01-01T09:05:02.274Z,68762.44
2023-01-01T09:07:29.357Z,68750.63
2023-01-01T09:09:56.462Z,68768.34
2023-01-01T09:12:23.595Z,68768.34
2023-01-01T09:14:50.662Z,68763.78
2023-01-01T09:17:17.759Z,68756.56
2023-01-01T09:19:44.831Z,68764.38
2023-01-01T09:22:12.351Z,68757.53
2023-01-01T09:24:39.619Z,68764.72
2023-01-01T09:27:17.117Z,68772.31
2023-01-01T09:29:52.926Z,68772.31
2023-01-01T09:32:25.177Z,68778.97
2023-01-01T09:35:04.215Z,68789.19
2023-01-01T09:37:31.469Z,68800.38
2023-01-01T09:40:01.279Z,68805.88
2023-01-01T09:42:40.528Z,68808.16
2023-01-01T09:45:10.473Z,68813.84
2023-01-01T09:47:45.201Z,68811.00
2023-01-01T09:50:16.786Z,68821.81
2023-01-01T09:52:58.201Z,68830.91
2023-01-01T09:55:35.267Z,68848.53
2023-01-01T09:58:08.061Z,68839.81
2023-01-01T10:00:35.809Z,68858.22
2023-01-01T10:03:36.984Z,68852.13
2023-01-01T10:06:26.021Z,68863.72
2023-01-01T10:09:15.243Z,68852.72
2023-01-01T10:11:58.814Z,68855.94
2023-01-01T10:14:34.431Z,68886.47
2023-01-01T10:17:17.031Z,68880.22
2023-01-01T10:20:22.046Z,68881.38
2023-01-01T10:23:14.643Z,68895.97
2023-01-01T10:25:48.443Z,68866.94
2023-01-01T10:28:51.667Z,68873.78
2023-01-01T10:31:28.289Z,68858.97
2023-01-01T10:36:59.250Z,68849.69
2023-01-01T10:39:28.041Z,68856.91
2023-01-01T10:42:02.169Z,68865.06
2023-01-01T10:44:42.567Z,68873.38
2023-01-01T10:47:22.879Z,68887.63
2023-01-01T10:50:07.947Z,68903.91
2023-01-01T10:52:38.623Z,68913.41
2023-01-01T10:55:19.006Z,68920.22
2023-01-01T10:57:46.166Z,68920.22
2023-01-01T11:00:23.672Z,68923.84
2023-01-01T11:03:13.792Z,68908.47
2023-01-01T11:06:01.443Z,68900.13
2023-01-01T11:08:41.215Z,68913.63
2023-01-01T11:11:21.092Z,68906.97
2023-01-01T11:13:59.970Z,68928.22
2023-01-01T11:16:29.045Z,68916.06
2023-01-01T11:19:04.841Z,68928.22
2023-01-01T11:21:34.794Z,68917.38
2023-01-01T11:24:20.893Z,68906.56
2023-01-01T11:26:55.122Z,68897.47
2023-01-01T11:29:29.726Z,68895.41
2023-01-01T11:31:58.769Z,68893.88
2023-01-01T11:34:43.097Z,68903.38
2023-01-01T11:37:34.013Z,68909.41
2023-01-01T11:40:06.664Z,68893.47
2023-01-01T11:42:35.702Z,68906.56
2023-01-01T11:45:53.071Z,68906.00
2023-01-01T11:48:30.353Z,68908.28
2023-01-01T11:51:06.544Z,68912.66
2023-01-01T11:53:42.144Z,68919.47
2023-01-01T11:56:16.616Z,68929.38
2023-01-01T11:59:06.944Z,68930.88
2023-01-01T12:01:47.998Z,68943.97
2023-01-01T12:04:33.647Z,68940.72
2023-01-01T12:07:20.644Z,68941.88
2023-01-01T12:09:58.982Z,68932.03
2023-01-01T12:13:14.201Z,68918.53
2023-01-01T12:15:53.802Z,68932.75
2023-01-01T12:18:53.223Z,68936.59
2023-01-01T12:21:35.268Z,68917.97
2023-01-01T12:24:10.421Z,68918.72
2023-01-01T12:27:16.235Z,68919.09
2023-01-01T12:30:06.910Z,68910.94
2023-01-01T12:33:15.990Z,68915.69
2023-01-01T12:36:09.809Z,68908.69
2023-01-01T12:39:04.249Z,68890.66
2023-01-01T12:41:52.249Z,68886.66
2023-01-01T12:44:57.188Z,68894.84
2023-01-01T12:47:33.457Z,68893.13
2023-01-01T12:50:16.904Z,68901.09
2023-01-01T12:52:59.180Z,68887.78
2023-01-01T12:55:57.509Z,68892.72
2023-01-01T12:58:32.376Z,68887.59
2023-01-01T13:01:14.228Z,68895.59
2023-01-01T13:03:58.542Z,68890.47
2023-01-01T13:06:49.520Z,68885.16
2023-01-01T13:09:30.278Z,68877.00
2023-01-01T13:12:05.953Z,68882.31
2023-01-01T13:14:40.525Z,68880.38
2023-01-01T13:17:22.709Z,68880.97
2023-01-01T13:19:59.387Z,68876.63
2023-01-01T13:22:26.438Z,68861.03
2023-01-01T13:25:18.506Z,68859.34
2023-01-01T13:27:57.873Z,68861.63
2023-01-01T13:30:37.512Z,68856.72
2023-01-01T13:33:35.069Z,68838.31
2023-01-01T13:36:14.190Z,68842.84
2023-01-01T13:38:55.021Z,68856.72
2023-01-01T13:41:41.148Z,68842.28
2023-01-01T13:44:08.196Z,68841.53
2023-01-01T13:46:51.768Z,68842.09
2023-01-01T13:49:46.628Z,68838.88
2023-01-01T13:52:32.727Z,68842.84
2023-01-01T13:55:19.190Z,68834.72
2023-01-01T13:58:04.815Z,68837.72
2023-01-01T14:01:05.307Z,68825.06
2023-01-01T14:03:42.606Z,68828.28
2023-01-01T14:06:27.244Z,68830.16
2023-01-01T14:09:10.337Z,68809.88
2023-01-01T14:11:37.549Z,68801.91
2023-01-01T14:14:24.581Z,68794.50
2023-01-01T14:16:55.133Z,68786.72
2023-01-01T14:19:24.377Z,68738.69
2023-01-01T14:21:52.872Z,68773.28
2023-01-01T14:24:22.685Z,68765.31
2023-01-01T14:26:50.956Z,68760.94
2023-01-01T14:29:29.101Z,68759.63
2023-01-01T14:32:12.121Z,68747.09
2023-01-01T14:34:39.270Z,68726.28
2023-01-01T14:37:21.711Z,68725.91
2023-01-01T14:40:05.552Z,68729.09
2023-01-01T14:42:34.253Z,68728.38
2023-01-01T14:45:01.521Z,68736.13
2023-01-01T14:47:34.957Z,68709.03
2023-01-01T14:50:17.435Z,68692.34
2023-01-01T14:52:45.847Z,68711.88
2023-01-01T14:55:19.042Z,68718.13
2023-01-01T14:57:48.884Z,68700.50
2023-01-01T15:00:31.221Z,68708.47
2023-01-01T15:03:17.017Z,68707.34
2023-01-01T15:05:47.059Z,68697.47
2023-01-01T15:08:24.069Z,68703.34
2023-01-01T15:10:51.667Z,68711.88
2023-01-01T15:13:24.533Z,68690.84
2023-01-01T15:15:54.896Z,68698.22
2023-01-01T15:18:38.179Z,68688.19
2023-01-01T15:21:21.663Z,68679.09
2023-01-01T15:23:56.470Z,68680.06
2023-01-01T15:26:26.691Z,68686.50
2023-01-01T15:28:54.263Z,68665.66
2023-01-01T15:31:21.407Z,68667.19
2023-01-01T15:33:49.509Z,68677.59
2023-01-01T15:36:16.923Z,68684.59
2023-01-01T15:38:48.309Z,68664.72
2023-01-01T15:41:41.752Z,68662.44
2023-01-01T15:44:14.989Z,68671.72
2023-01-01T15:46:47.618Z,68664.72
2023-01-01T15:49:28.084Z,68663.41
2023-01-01T15:52:03.886Z,68681.19
2023-01-01T15:54:39.808Z,68678.16
2023-01-01T15:57:27.337Z,68656.75
2023-01-01T15:59:55.416Z,68662.22
2023-01-01T16:02:38.801Z,68672.84
2023-01-01T16:05:14.626Z,68649.53
2023-01-01T16:07:42.113Z,68643.88
2023-01-01T16:10:17.633Z,68652.38
2023-01-01T16:12:44.825Z,68654.09
2023-01-01T16:15:16.058Z,68654.66
2023-01-01T16:17:44.243Z,68661.09
2023-01-01T16:20:19.100Z,68633.06
2023-01-01T16:22:46.208Z,68636.09
2023-01-01T16:25:21.615Z,68628.91
2023-01-01T16:27:49.654Z,68638.00
2023-01-01T16:30:16.899Z,68624.19
2023-01-01T16:32:45.025Z,68604.09
2023-01-01T16:35:13.741Z,68603.53
2023-01-01T16:37:41.060Z,68604.69
2023-01-01T16:40:09.646Z,68596.34
2023-01-01T16:42:36.874Z,68610.56
2023-01-01T16:45:04.378Z,68608.25
2023-01-01T16:47:31.507Z,68615.84
2023-01-01T16:49:58.642Z,68609.97
2023-01-01T16:52:29.948Z,68600.31
2023-01-01T16:55:00.260Z,68596.53
2023-01-01T16:57:27.720Z,68592.75
2023-01-01T16:59:54.893Z,68587.28
2023-01-01T17:02:22.199Z,68600.50
2023-01-01T17:04:49.580Z,68602.22
2023-01-01T17:07:16.852Z,68600.31
2023-01-01T17:09:44.355Z,68605.81
2023-01-01T17:12:11.785Z,68606.75
2023-01-01T17:14:39.151Z,68614.31
2023-01-01T17:17:06.247Z,68621.69
2023-01-01T17:19:36.547Z,68619.81
2023-01-01T17:22:10.183Z,68612.44
2023-01-01T17:24:37.215Z,68601.06
2023-01-01T17:27:04.607Z,68608.84
2023-01-01T17:29:31.780Z,68609.59
2023-01-01T17:32:04.705Z,68602.94
2023-01-01T17:34:31.907Z,68611.13
2023-01-01T17:36:59.285Z,68602.59
2023-01-01T17:39:26.533Z,68602.03
2023-01-01T17:41:53.801Z,68598.25
2023-01-01T17:44:20.988Z,68606.19
2023-01-01T17:46:49.278Z,68607.31
2023-01-01T17:49:16.552Z,68606.94
2023-01-01T17:51:43.813Z,68609.59
2023-01-01T17:54:13.769Z,68592.56
2023-01-01T17:56:41.320Z,68603.94
2023-01-01T17:59:09.433Z,68592.75
2023-01-01T18:01:36.690Z,68604.69
2023-01-01T18:04:07.224Z,68598.41
2023-01-01T18:06:41.472Z,68607.91
2023-01-01T18:09:12.436Z,68612.25
2023-01-01T18:11:39.901Z,68603.53
2023-01-01T18:14:07.228Z,68601.63
2023-01-01T18:16:36.695Z,68599.56
2023-01-01T18:19:05.380Z,68609.41
2023-01-01T18:21:35.889Z,68589.72
2023-01-01T18:24:03.084Z,68580.44
2023-01-01T18:26:31.338Z,68594.84
2023-01-01T18:29:05.103Z,68601.63
2023-01-01T18:31:34.275Z,68598.41
2023-01-01T18:34:04.206Z,68600.69
2023-01-01T18:36:33.669Z,68591.81
2023-01-01T18:39:02.481Z,68585.19
2023-01-01T18:41:43.504Z,68599.94
2023-01-01T18:44:26.028Z,68607.31
2023-01-01T18:47:11.591Z,68601.63
2023-01-01T18:49:38.910Z,68602.78
2023-01-01T18:52:05.945Z,68614.13
2023-01-01T18:54:34.478Z,68627.22
2023-01-01T18:57:29.943Z,68606.94
2023-01-01T19:00:15.240Z,68613.75
2023-01-01T19:02:54.125Z,68627.00
2023-01-01T19:05:26.926Z,68639.53
2023-01-01T19:08:12.961Z,68630.03
2023-01-01T19:10:42.754Z,68624.91
2023-01-01T19:13:15.106Z,68629.09
2023-01-01T19:15:57.798Z,68638.56
2023-01-01T19:18:30.244Z,68635.91
2023-01-01T19:21:22.251Z,68626.63
2023-01-01T19:23:50.805Z,68643.66
2023-01-01T19:26:29.799Z,68642.91
2023-01-01T19:29:00.717Z,68624.91
2023-01-01T19:31:27.916Z,68635.72
2023-01-01T19:33:55.107Z,68635.34
2023-01-01T19:36:22.435Z,68632.69
2023-01-01T19:38:49.527Z,68636.88
2023-01-01T19:41:16.606Z,68640.84
2023-01-01T19:43:43.838Z,68651.63
2023-01-01T19:46:10.965Z,68650.50
2023-01-01T19:48:38.074Z,68656.56
2023-01-01T19:51:06.407Z,68649.19
2023-01-01T19:53:40.896Z,68636.47
2023-01-01T19:56:08.105Z,68640.44
2023-01-01T19:58:35.284Z,68648.97
2023-01-01T20:01:04.592Z,68648.59
2023-01-01T20:03:53.437Z,68643.66
2023-01-01T20:06:18.927Z,68640.84
2023-01-01T20:08:46.091Z,68639.13
2023-01-01T20:11:13.171Z,68621.31
2023-01-01T20:13:40.286Z,68631.19
2023-01-01T20:16:08.210Z,68623.78
2023-01-01T20:18:35.398Z,68638.38
2023-01-01T20:21:25.932Z,68638.56
2023-01-01T20:23:55.460Z,68640.66
2023-01-01T20:26:23.931Z,68641.22
2023-01-01T20:29:09.943Z,68643.66
2023-01-01T20:31:37.273Z,68643.66
2023-01-01T20:34:05.238Z,68632.88
2023-01-01T20:36:51.048Z,68632.31
2023-01-01T20:39:18.275Z,68639.13
2023-01-01T20:41:45.590Z,68648.59
2023-01-01T20:44:12.685Z,68653.72
2023-01-01T20:46:41.219Z,68660.91
2023-01-01T20:49:08.469Z,68660.34
2023-01-01T20:51:35.693Z,68673.44
2023-01-01T20:54:03.376Z,68678.34
2023-01-01T20:56:30.541Z,68666.44
2023-01-01T20:59:04.448Z,68669.66
2023-01-01T21:01:40.076Z,68663.00
2023-01-01T21:04:07.824Z,68662.06
2023-01-01T21:06:35.168Z,68664.72
2023-01-01T21:09:05.271Z,68667.38
2023-01-01T21:11:33.408Z,68655.44
2023-01-01T21:14:05.402Z,68647.84
2023-01-01T21:16:37.220Z,68645.38
2023-01-01T21:19:07.821Z,68635.91
2023-01-01T21:21:47.425Z,68639.53
2023-01-01T21:24:37.612Z,68632.88
2023-01-01T21:27:07.791Z,68631.56
2023-01-01T21:29:35.352Z,68618.88
2023-01-01T21:32:16.535Z,68610.94
2023-01-01T21:34:44.773Z,68601.28
2023-01-01T21:37:47.240Z,68599.38
2023-01-01T21:40:24.389Z,68593.88
2023-01-01T21:42:58.300Z,68591.41
2023-01-01T21:45:31.491Z,68572.88
2023-01-01T21:48:11.572Z,68566.44
2023-01-01T21:50:42.824Z,68569.66
2023-01-01T21:53:15.512Z,68562.47
2023-01-01T21:55:52.857Z,68561.50
2023-01-01T21:58:45.777Z,68552.25
2023-01-01T22:01:30.157Z,68538.81
2023-01-01T22:04:02.458Z,68535.03
2023-01-01T22:06:39.143Z,68529.91
2023-01-01T22:09:21.763Z,68528.59
2023-01-01T22:11:56.827Z,68539.38
2023-01-01T22:14:27.382Z,68548.28
2023-01-01T22:16:58.434Z,68549.41
2023-01-01T22:19:31.288Z,68551.31
2023-01-01T22:21:59.490Z,68543.94
2023-01-01T22:24:26.510Z,68532.94
2023-01-01T22:26:53.649Z,68536.53
2023-01-01T22:29:26.186Z,68533.34
2023-01-01T22:32:13.101Z,68529.91
2023-01-01T22:34:40.275Z,68520.25
2023-01-01T22:37:20.314Z,68518.94
2023-01-01T22:39:48.207Z,68523.28
2023-01-01T22:42:17.120Z,68533.13
2023-01-01T22:44:57.561Z,68529.16
2023-01-01T22:47:36.096Z,68535.22
2023-01-01T22:50:09.043Z,68539.38
2023-01-01T22:52:36.120Z,68549.59
2023-01-01T22:55:03.355Z,68564.56
2023-01-01T22:57:33.444Z,68566.44
2023-01-01T23:00:00.519Z,68566.25
2023-01-01T23:02:30.564Z,68561.91
2023-01-01T23:04:57.777Z,68564.72
2023-01-01T23:07:25.550Z,68563.22
2023-01-01T23:09:56.953Z,68576.09
2023-01-01T23:12:27.129Z,68582.31
2023-01-01T23:15:18.202Z,68590.84
2023-01-01T23:17:54.164Z,68593.69
2023-01-01T23:20:21.512Z,68600.31
2023-01-01T23:22:52.880Z,68612.25
2023-01-01T23:25:21.390Z,68606.19
2023-01-01T23:27:50.356Z,68601.63
2023-01-01T23:30:20.330Z,68603.94
2023-01-01T23:32:47.891Z,68601.28
2023-01-01T23:35:19.337Z,68607.50
2023-01-01T23:37:46.660Z,68609.41
2023-01-01T23:40:13.796Z,68608.84
2023-01-01T23:42:40.994Z,68606.00
2023-01-01T23:45:08.455Z,68604.88
2023-01-01T23:47:35.658Z,68605.81
2023-01-01T23:50:03.501Z,68609.59
2023-01-01T23:52:33.169Z,68612.81
2023-01-01T23:55:00.205Z,68625.13
2023-01-01T23:57:27.691Z,68629.09
2023-01-01T23:59:55.927Z,68634.97
